createdAt,value
2018-03-03T00:00:42.694Z,60.49
2018-03-03T00:01:43.434Z,60.30
2018-03-03T00:02:42.612Z,60.58
2018-03-03T00:03:42.584Z,60.96
2018-03-03T00:04:42.589Z,60.96
2018-03-03T00:05:43.423Z,61.24
2018-03-03T00:06:42.483Z,61.33
2018-03-03T00:07:42.433Z,61.33
2018-03-03T00:08:42.419Z,61.05
2018-03-03T00:09:42.983Z,60.86
2018-03-03T00:10:42.410Z,60.96
2018-03-03T00:11:42.316Z,60.77
2018-03-03T00:12:42.334Z,61.62
2018-03-03T00:13:42.212Z,62.09
2018-03-03T00:14:42.216Z,61.71
2018-03-03T00:15:42.146Z,61.71
2018-03-03T00:16:42.103Z,62.18
2018-03-03T00:17:42.067Z,61.99
2018-03-03T00:18:42.032Z,61.99
2018-03-03T00:19:42.569Z,62.47
2018-03-03T00:20:41.955Z,62.09
2018-03-03T00:21:41.925Z,61.99
2018-03-03T00:22:41.895Z,61.99
2018-03-03T00:23:42.408Z,62.37
2018-03-03T00:24:41.867Z,62.84
2018-03-03T00:25:41.772Z,62.47
2018-03-03T00:26:42.413Z,62.65
2018-03-03T00:27:41.698Z,62.84
2018-03-03T00:28:41.674Z,62.84
2018-03-03T00:29:41.667Z,63.41
2018-03-03T00:30:42.410Z,63.13
2018-03-03T00:31:41.557Z,63.13
2018-03-03T00:32:41.519Z,63.22
2018-03-03T00:33:41.480Z,63.41
2018-03-03T00:34:41.958Z,63.22
2018-03-03T00:35:41.451Z,63.03
2018-03-03T00:36:41.375Z,63.50
2018-03-03T00:37:41.909Z,63.41
2018-03-03T00:38:41.298Z,64.16
2018-03-03T00:39:41.322Z,64.07
2018-03-03T00:40:41.272Z,63.98
2018-03-03T00:41:41.909Z,63.98
2018-03-03T00:42:41.158Z,63.88
2018-03-03T00:43:41.118Z,64.83
2018-03-03T00:44:41.463Z,64.16
2018-03-03T00:45:41.038Z,64.26
2018-03-03T00:46:41.043Z,64.54
2018-03-03T00:47:40.966Z,64.92
2018-03-03T00:48:40.934Z,64.73
2018-03-03T00:49:40.895Z,64.73
2018-03-03T00:50:40.893Z,64.92
2018-03-03T00:51:40.873Z,65.11
2018-03-03T00:52:40.780Z,65.39
2018-03-03T00:53:40.749Z,65.20
2018-03-03T00:54:41.407Z,65.48
2018-03-03T00:55:40.676Z,65.58
2018-03-03T00:56:40.682Z,65.39
2018-03-03T00:57:40.601Z,65.86
2018-03-03T00:58:40.561Z,65.95
2018-03-03T00:59:40.523Z,65.95
2018-03-03T01:00:40.533Z,65.95
2018-03-03T01:01:40.454Z,65.77
2018-03-03T01:02:40.435Z,65.58
2018-03-03T01:03:40.427Z,66.05
2018-03-03T01:04:40.347Z,65.86
2018-03-03T01:05:40.301Z,66.14
2018-03-03T01:06:40.263Z,66.14
2018-03-03T01:07:40.228Z,66.14
2018-03-03T01:08:40.232Z,65.86
2018-03-03T01:09:40.159Z,66.05
2018-03-03T01:10:40.175Z,66.24
2018-03-03T01:11:40.087Z,66.24
2018-03-03T01:12:40.046Z,66.42
2018-03-03T01:13:40.014Z,66.14
2018-03-03T01:14:39.971Z,65.95
2018-03-03T01:15:39.981Z,66.52
2018-03-03T01:16:39.899Z,66.14
2018-03-03T01:17:39.860Z,66.33
2018-03-03T01:18:39.828Z,66.42
2018-03-03T01:19:39.790Z,66.14
2018-03-03T01:20:39.805Z,66.14
2018-03-03T01:21:40.419Z,67.18
2018-03-03T01:22:39.677Z,66.99
2018-03-03T01:23:39.651Z,66.89
2018-03-03T01:24:39.601Z,66.99
2018-03-03T01:25:39.962Z,66.99
2018-03-03T01:26:39.533Z,66.80
2018-03-03T01:27:39.492Z,66.42
2018-03-03T01:28:39.501Z,66.89
2018-03-03T01:29:39.425Z,66.99
2018-03-03T01:30:39.380Z,66.99
2018-03-03T01:31:39.388Z,66.80
2018-03-03T01:32:39.305Z,66.80
2018-03-03T01:33:39.268Z,66.61
2018-03-03T01:34:39.907Z,67.18
2018-03-03T01:35:39.203Z,67.08
2018-03-03T01:36:39.214Z,67.27
2018-03-03T01:37:39.138Z,67.18
2018-03-03T01:38:39.085Z,67.36
2018-03-03T01:39:39.047Z,67.36
2018-03-03T01:40:39.913Z,67.74
2018-03-03T01:41:39.012Z,67.46
2018-03-03T01:42:38.938Z,67.36
2018-03-03T01:43:38.952Z,67.65
2018-03-03T01:44:39.407Z,68.02
2018-03-03T01:45:38.830Z,67.93
2018-03-03T01:46:38.788Z,67.65
2018-03-03T01:47:38.794Z,67.65
2018-03-03T01:48:38.753Z,67.84
2018-03-03T01:49:38.681Z,67.55
2018-03-03T01:50:38.640Z,67.65
2018-03-03T01:51:39.409Z,68.12
2018-03-03T01:52:38.608Z,68.12
2018-03-03T01:53:38.530Z,68.02
2018-03-03T01:54:38.537Z,68.31
2018-03-03T01:55:38.457Z,68.40
2018-03-03T01:56:38.416Z,68.31
2018-03-03T01:57:38.388Z,68.31
2018-03-03T01:58:38.476Z,68.21
2018-03-03T01:59:38.305Z,68.12
2018-03-03T02:00:38.274Z,68.12
2018-03-03T02:01:38.232Z,68.02
2018-03-03T02:02:38.915Z,68.68
2018-03-03T02:03:38.909Z,68.02
2018-03-03T02:04:38.124Z,68.40
2018-03-03T02:05:38.085Z,68.40
2018-03-03T02:06:38.046Z,68.50
2018-03-03T02:07:38.009Z,68.50
2018-03-03T02:08:38.035Z,68.40
2018-03-03T02:09:37.937Z,68.59
2018-03-03T02:10:38.411Z,68.50
2018-03-03T02:11:37.861Z,68.50
2018-03-03T02:12:37.831Z,68.50
2018-03-03T02:13:37.844Z,68.21
2018-03-03T02:14:37.751Z,68.21
2018-03-03T02:15:37.714Z,68.12
2018-03-03T02:16:37.676Z,68.31
2018-03-03T02:17:37.693Z,68.31
2018-03-03T02:18:37.598Z,68.21
2018-03-03T02:19:37.603Z,68.21
2018-03-03T02:20:37.535Z,68.68
2018-03-03T02:21:37.518Z,68.87
2018-03-03T02:22:37.458Z,68.50
2018-03-03T02:23:37.416Z,68.87
2018-03-03T02:24:37.420Z,68.78
2018-03-03T02:25:37.346Z,68.97
2018-03-03T02:26:37.303Z,68.78
2018-03-03T02:27:37.266Z,68.68
2018-03-03T02:28:37.231Z,68.78
2018-03-03T02:29:37.238Z,68.78
2018-03-03T02:30:37.161Z,68.87
2018-03-03T02:31:37.910Z,68.78
2018-03-03T02:32:37.085Z,68.97
2018-03-03T02:33:37.043Z,68.87
2018-03-03T02:34:37.054Z,68.68
2018-03-03T02:35:37.125Z,68.68
2018-03-03T02:36:36.947Z,68.78
2018-03-03T02:37:36.892Z,69.16
2018-03-03T02:38:36.858Z,68.78
2018-03-03T02:39:36.874Z,68.78
2018-03-03T02:40:36.795Z,68.68
2018-03-03T02:41:36.742Z,68.50
2018-03-03T02:42:36.708Z,68.87
2018-03-03T02:43:36.671Z,69.16
2018-03-03T02:44:36.706Z,68.87
2018-03-03T02:45:37.404Z,69.02
2018-03-03T02:46:36.592Z,69.12
2018-03-03T02:47:36.520Z,69.06
2018-03-03T02:48:36.485Z,69.02
2018-03-03T02:49:36.445Z,68.93
2018-03-03T02:50:36.452Z,68.97
2018-03-03T02:51:36.409Z,69.02
2018-03-03T02:52:36.340Z,69.40
2018-03-03T02:53:36.302Z,68.97
2018-03-03T02:54:36.300Z,69.06
2018-03-03T02:55:36.259Z,68.93
2018-03-03T02:56:36.904Z,69.21
2018-03-03T02:57:36.148Z,68.97
2018-03-03T02:58:36.114Z,69.02
2018-03-03T02:59:36.906Z,69.21
2018-03-03T03:00:36.080Z,69.53
2018-03-03T03:01:36.065Z,69.44
2018-03-03T03:02:36.902Z,69.53
2018-03-03T03:03:35.926Z,69.50
2018-03-03T03:04:35.884Z,69.40
2018-03-03T03:05:35.846Z,69.63
2018-03-03T03:06:35.956Z,69.59
2018-03-03T03:07:35.780Z,69.31
2018-03-03T03:08:35.742Z,69.44
2018-03-03T03:09:35.702Z,69.59
2018-03-03T03:10:35.666Z,69.31
2018-03-03T03:11:35.660Z,69.50
2018-03-03T03:12:35.585Z,69.50
2018-03-03T03:13:35.560Z,69.68
2018-03-03T03:14:35.519Z,69.31
2018-03-03T03:15:35.473Z,69.50
2018-03-03T03:16:35.540Z,69.59
2018-03-03T03:17:35.402Z,69.59
2018-03-03T03:18:35.362Z,69.50
2018-03-03T03:19:35.326Z,69.68
2018-03-03T03:20:35.296Z,69.87
2018-03-03T03:21:35.293Z,69.68
2018-03-03T03:22:35.217Z,69.68
2018-03-03T03:23:35.216Z,69.59
2018-03-03T03:24:35.138Z,69.78
2018-03-03T03:25:35.100Z,69.68
2018-03-03T03:26:35.065Z,69.78
2018-03-03T03:27:35.454Z,69.68
2018-03-03T03:28:34.992Z,69.50
2018-03-03T03:29:34.949Z,70.06
2018-03-03T03:30:34.920Z,70.06
2018-03-03T03:31:34.881Z,70.34
2018-03-03T03:32:34.883Z,70.25
2018-03-03T03:33:34.852Z,69.97
2018-03-03T03:34:34.781Z,70.53
2018-03-03T03:35:34.727Z,70.34
2018-03-03T03:36:34.697Z,69.78
2018-03-03T03:37:34.652Z,70.16
2018-03-03T03:38:34.660Z,69.87
2018-03-03T03:39:34.577Z,70.16
2018-03-03T03:40:34.543Z,70.25
2018-03-03T03:41:34.526Z,70.53
2018-03-03T03:42:34.465Z,70.44
2018-03-03T03:43:34.471Z,70.82
2018-03-03T03:44:34.389Z,70.72
2018-03-03T03:45:34.353Z,70.25
2018-03-03T03:46:34.313Z,70.16
2018-03-03T03:47:34.273Z,70.34
2018-03-03T03:48:34.294Z,70.16
2018-03-03T03:49:34.207Z,70.16
2018-03-03T03:50:34.166Z,70.34
2018-03-03T03:51:34.127Z,70.06
2018-03-03T03:52:34.087Z,70.06
2018-03-03T03:53:34.102Z,70.72
2018-03-03T03:54:34.012Z,70.72
2018-03-03T03:55:33.977Z,69.97
2018-03-03T03:56:33.939Z,69.97
2018-03-03T03:57:33.900Z,70.53
2018-03-03T03:58:33.918Z,69.97
2018-03-03T03:59:33.829Z,70.53
2018-03-03T04:00:33.785Z,70.72
2018-03-03T04:01:33.749Z,70.34
2018-03-03T04:02:33.711Z,70.06
2018-03-03T04:03:33.717Z,70.16
2018-03-03T04:04:33.638Z,70.25
2018-03-03T04:05:33.599Z,70.25
2018-03-03T04:06:33.561Z,70.34
2018-03-03T04:07:33.565Z,70.16
2018-03-03T04:08:33.492Z,70.53
2018-03-03T04:09:33.452Z,70.53
2018-03-03T04:10:33.451Z,69.97
2018-03-03T04:11:33.373Z,70.25
2018-03-03T04:12:33.341Z,70.63
2018-03-03T04:13:33.298Z,70.16
2018-03-03T04:14:33.261Z,70.06
2018-03-03T04:15:33.267Z,70.34
2018-03-03T04:16:33.203Z,70.34
2018-03-03T04:17:33.151Z,70.34
2018-03-03T04:18:33.111Z,70.34
2018-03-03T04:19:33.108Z,70.53
2018-03-03T04:20:33.037Z,70.72
2018-03-03T04:21:33.045Z,70.53
2018-03-03T04:22:32.962Z,70.63
2018-03-03T04:23:32.923Z,71.29
2018-03-03T04:24:32.936Z,71.29
2018-03-03T04:25:32.849Z,71.19
2018-03-03T04:26:32.845Z,71.00
2018-03-03T04:27:32.769Z,70.72
2018-03-03T04:28:32.732Z,70.53
2018-03-03T04:29:32.737Z,70.53
2018-03-03T04:30:32.672Z,70.44
2018-03-03T04:31:32.624Z,70.25
2018-03-03T04:32:32.583Z,70.44
2018-03-03T04:33:32.551Z,70.53
2018-03-03T04:34:32.561Z,70.63
2018-03-03T04:35:32.470Z,71.00
2018-03-03T04:36:32.437Z,71.19
2018-03-03T04:37:32.394Z,71.00
2018-03-03T04:38:32.358Z,71.00
2018-03-03T04:39:32.365Z,71.38
2018-03-03T04:40:32.285Z,71.38
2018-03-03T04:41:32.246Z,71.57
2018-03-03T04:42:32.206Z,72.04
2018-03-03T04:43:32.174Z,72.04
2018-03-03T04:44:32.174Z,71.66
2018-03-03T04:45:32.093Z,71.57
2018-03-03T04:46:32.099Z,71.66
2018-03-03T04:47:32.029Z,71.85
2018-03-03T04:48:31.987Z,71.76
2018-03-03T04:49:31.943Z,71.57
2018-03-03T04:50:31.907Z,71.66
2018-03-03T04:51:31.918Z,71.48
2018-03-03T04:52:31.884Z,71.48
2018-03-03T04:53:31.793Z,71.95
2018-03-03T04:54:32.400Z,71.76
2018-03-03T04:55:31.722Z,71.66
2018-03-03T04:56:31.679Z,71.66
2018-03-03T04:57:31.686Z,71.57
2018-03-03T04:58:31.653Z,71.66
2018-03-03T04:59:31.569Z,71.66
2018-03-03T05:00:31.527Z,71.66
2018-03-03T05:01:31.490Z,71.57
2018-03-03T05:02:31.495Z,71.66
2018-03-03T05:03:32.344Z,71.66
2018-03-03T05:04:31.426Z,71.57
2018-03-03T05:05:31.338Z,71.76
2018-03-03T05:06:31.302Z,71.57
2018-03-03T05:07:31.270Z,71.57
2018-03-03T05:08:31.235Z,71.57
2018-03-03T05:09:31.237Z,71.95
2018-03-03T05:10:31.154Z,71.66
2018-03-03T05:11:31.108Z,71.85
2018-03-03T05:12:31.071Z,71.85
2018-03-03T05:13:31.044Z,71.66
2018-03-03T05:14:31.035Z,72.23
2018-03-03T05:15:30.958Z,71.76
2018-03-03T05:16:30.927Z,71.95
2018-03-03T05:17:30.887Z,71.95
2018-03-03T05:18:30.897Z,72.14
2018-03-03T05:19:30.807Z,72.04
2018-03-03T05:20:30.770Z,72.23
2018-03-03T05:21:30.732Z,71.85
2018-03-03T05:22:30.693Z,72.04
2018-03-03T05:23:30.704Z,72.04
2018-03-03T05:24:30.620Z,71.85
2018-03-03T05:25:30.606Z,72.04
2018-03-03T05:26:30.594Z,71.85
2018-03-03T05:27:30.511Z,72.14
2018-03-03T05:28:30.522Z,72.14
2018-03-03T05:29:30.433Z,71.85
2018-03-03T05:30:30.389Z,72.14
2018-03-03T05:31:30.361Z,72.70
2018-03-03T05:32:30.332Z,72.23
2018-03-03T05:33:30.317Z,72.23
2018-03-03T05:34:30.253Z,72.33
2018-03-03T05:35:30.199Z,72.33
2018-03-03T05:36:30.215Z,72.33
2018-03-03T05:37:30.126Z,72.51
2018-03-03T05:38:30.903Z,72.23
2018-03-03T05:39:30.088Z,72.61
2018-03-03T05:40:30.015Z,73.08
2018-03-03T05:41:29.973Z,72.89
2018-03-03T05:42:29.935Z,73.27
2018-03-03T05:43:29.897Z,72.99
2018-03-03T05:44:29.951Z,73.46
2018-03-03T05:45:29.842Z,72.99
2018-03-03T05:46:29.787Z,73.27
2018-03-03T05:47:29.799Z,72.99
2018-03-03T05:48:29.715Z,73.27
2018-03-03T05:49:29.666Z,73.27
2018-03-03T05:50:29.677Z,73.46
2018-03-03T05:51:29.597Z,72.89
2018-03-03T05:52:29.588Z,72.89
2018-03-03T05:53:29.520Z,72.99
2018-03-03T05:54:29.523Z,72.99
2018-03-03T05:55:29.459Z,73.27
2018-03-03T05:56:29.405Z,73.27
2018-03-03T05:57:29.408Z,73.36
2018-03-03T05:58:29.332Z,73.27
2018-03-03T05:59:29.351Z,72.99
2018-03-03T06:00:29.257Z,73.27
2018-03-03T06:01:29.212Z,73.17
2018-03-03T06:02:29.177Z,73.27
2018-03-03T06:03:29.140Z,73.08
2018-03-03T06:04:29.154Z,72.99
2018-03-03T06:05:29.064Z,72.99
2018-03-03T06:06:29.037Z,73.83
2018-03-03T06:07:28.987Z,74.11
2018-03-03T06:08:28.989Z,73.93
2018-03-03T06:09:28.972Z,73.46
2018-03-03T06:10:28.873Z,73.17
2018-03-03T06:11:28.832Z,72.99
2018-03-03T06:12:28.798Z,73.08
2018-03-03T06:13:28.773Z,73.08
2018-03-03T06:14:28.765Z,73.27
2018-03-03T06:15:28.724Z,73.27
2018-03-03T06:16:28.652Z,73.27
2018-03-03T06:17:28.623Z,73.27
2018-03-03T06:18:28.613Z,73.17
2018-03-03T06:19:28.530Z,73.36
2018-03-03T06:20:28.495Z,73.27
2018-03-03T06:21:28.492Z,73.36
2018-03-03T06:22:28.415Z,73.46
2018-03-03T06:23:28.423Z,73.17
2018-03-03T06:24:28.355Z,73.36
2018-03-03T06:25:28.304Z,73.08
2018-03-03T06:26:28.267Z,73.27
2018-03-03T06:27:28.231Z,73.36
2018-03-03T06:28:28.236Z,72.99
2018-03-03T06:29:28.151Z,73.27
2018-03-03T06:30:28.154Z,73.27
2018-03-03T06:31:28.120Z,73.08
2018-03-03T06:32:28.037Z,72.89
2018-03-03T06:33:28.006Z,73.17
2018-03-03T06:34:27.958Z,73.08
2018-03-03T06:35:27.921Z,73.08
2018-03-03T06:36:27.927Z,72.70
2018-03-03T06:37:27.864Z,72.89
2018-03-03T06:38:27.846Z,72.61
2018-03-03T06:39:27.813Z,72.61
2018-03-03T06:40:27.743Z,72.80
2018-03-03T06:41:27.735Z,72.23
2018-03-03T06:42:27.665Z,72.61
2018-03-03T06:43:27.620Z,72.42
2018-03-03T06:44:27.579Z,72.51
2018-03-03T06:45:27.592Z,72.80
2018-03-03T06:46:27.544Z,72.04
2018-03-03T06:47:27.469Z,72.14
2018-03-03T06:48:27.454Z,72.04
2018-03-03T06:49:27.424Z,71.95
2018-03-03T06:50:27.355Z,71.76
2018-03-03T06:51:27.360Z,71.76
2018-03-03T06:52:27.286Z,71.76
2018-03-03T06:53:27.241Z,71.85
2018-03-03T06:54:27.207Z,71.85
2018-03-03T06:55:27.174Z,71.66
2018-03-03T06:56:27.175Z,71.66
2018-03-03T06:57:27.095Z,71.66
2018-03-03T06:58:27.058Z,71.85
2018-03-03T06:59:27.017Z,71.85
2018-03-03T07:00:26.980Z,71.48
2018-03-03T07:01:27.024Z,71.38
2018-03-03T07:02:26.917Z,71.57
2018-03-03T07:03:26.884Z,71.38
2018-03-03T07:04:26.838Z,71.57
2018-03-03T07:05:26.793Z,71.19
2018-03-03T07:06:26.802Z,71.48
2018-03-03T07:07:26.717Z,70.91
2018-03-03T07:08:26.682Z,70.82
2018-03-03T07:09:26.646Z,71.19
2018-03-03T07:10:26.603Z,71.29
2018-03-03T07:11:26.622Z,71.10
2018-03-03T07:12:26.528Z,70.53
2018-03-03T07:13:26.496Z,70.72
2018-03-03T07:14:26.454Z,70.72
2018-03-03T07:15:26.419Z,70.44
2018-03-03T07:16:26.420Z,70.19
2018-03-03T07:17:26.409Z,70.06
2018-03-03T07:18:26.305Z,70.10
2018-03-03T07:19:26.271Z,70.16
2018-03-03T07:20:26.232Z,70.29
2018-03-03T07:21:26.194Z,70.57
2018-03-03T07:22:26.254Z,70.38
2018-03-03T07:23:26.136Z,70.19
2018-03-03T07:24:26.089Z,69.72
2018-03-03T07:25:26.054Z,69.63
2018-03-03T07:26:26.007Z,69.35
2018-03-03T07:27:26.027Z,69.72
2018-03-03T07:28:25.963Z,68.78
2018-03-03T07:29:25.898Z,69.25
2018-03-03T07:30:25.873Z,68.78
2018-03-03T07:31:25.829Z,68.50
2018-03-03T07:32:25.835Z,68.50
2018-03-03T07:33:25.796Z,68.02
2018-03-03T07:34:25.709Z,68.50
2018-03-03T07:35:25.674Z,68.21
2018-03-03T07:36:25.686Z,68.12
2018-03-03T07:37:25.601Z,67.93
2018-03-03T07:38:25.565Z,67.84
2018-03-03T07:39:25.961Z,67.27
2018-03-03T07:40:25.498Z,67.36
2018-03-03T07:41:25.498Z,66.80
2018-03-03T07:42:25.431Z,66.89
2018-03-03T07:43:25.452Z,66.52
2018-03-03T07:44:25.345Z,66.24
2018-03-03T07:45:25.313Z,66.05
2018-03-03T07:46:25.276Z,66.14
2018-03-03T07:47:25.237Z,66.33
2018-03-03T07:48:25.255Z,66.24
2018-03-03T07:49:25.212Z,66.24
2018-03-03T07:50:25.164Z,65.77
2018-03-03T07:51:25.094Z,65.77
2018-03-03T07:52:25.056Z,65.30
2018-03-03T07:53:25.071Z,65.11
2018-03-03T07:54:24.986Z,65.11
2018-03-03T07:55:24.995Z,64.76
2018-03-03T07:56:24.961Z,65.05
2018-03-03T07:57:24.889Z,64.76
2018-03-03T07:58:24.839Z,64.86
2018-03-03T07:59:24.827Z,64.67
2018-03-03T08:00:25.297Z,64.01
2018-03-03T08:01:24.775Z,64.10
2018-03-03T08:02:24.718Z,63.25
2018-03-03T08:03:25.394Z,63.16
2018-03-03T08:04:24.623Z,62.21
2018-03-03T08:05:24.588Z,61.46
2018-03-03T08:06:24.592Z,60.71
2018-03-03T08:07:24.521Z,59.77
2018-03-03T08:08:24.482Z,59.86
2018-03-03T08:09:24.509Z,59.67
2018-03-03T08:10:24.411Z,59.95
2018-03-03T08:11:24.375Z,59.95
2018-03-03T08:12:24.340Z,59.99
2018-03-03T08:13:24.307Z,59.61
2018-03-03T08:14:24.427Z,59.61
2018-03-03T08:15:24.258Z,59.70
2018-03-03T08:16:24.204Z,58.85
2018-03-03T08:17:24.170Z,58.47
2018-03-03T08:18:24.140Z,57.53
2018-03-03T08:19:24.145Z,57.06
2018-03-03T08:20:24.108Z,56.59
2018-03-03T08:21:24.030Z,56.77
2018-03-03T08:22:24.003Z,56.02
2018-03-03T08:23:23.976Z,56.68
2018-03-03T08:24:23.936Z,56.30
2018-03-03T08:25:23.943Z,55.93
2018-03-03T08:26:23.891Z,55.83
2018-03-03T08:27:23.834Z,55.18
2018-03-03T08:28:23.805Z,55.36
2018-03-03T08:29:23.771Z,55.08
2018-03-03T08:30:23.800Z,55.18
2018-03-03T08:31:23.716Z,54.89
2018-03-03T08:32:23.709Z,54.89
2018-03-03T08:33:23.650Z,54.70
2018-03-03T08:34:23.627Z,54.44
2018-03-03T08:35:23.645Z,54.35
2018-03-03T08:36:23.566Z,53.97
2018-03-03T08:37:23.536Z,53.59
2018-03-03T08:38:23.515Z,52.84
2018-03-03T08:39:23.530Z,52.94
2018-03-03T08:40:23.453Z,52.56
2018-03-03T08:41:23.468Z,52.18
2018-03-03T08:42:23.397Z,52.18
2018-03-03T08:43:23.371Z,51.81
2018-03-03T08:44:23.347Z,51.14
2018-03-03T08:45:23.361Z,51.24
2018-03-03T08:46:23.334Z,50.95
2018-03-03T08:47:23.328Z,50.20
2018-03-03T08:48:23.240Z,50.04
2018-03-03T08:49:23.213Z,49.82
2018-03-03T08:50:23.189Z,50.10
2018-03-03T08:51:23.225Z,50.20
2018-03-03T08:52:23.139Z,50.29
2018-03-03T08:53:23.168Z,50.95
2018-03-03T08:54:23.090Z,51.07
2018-03-03T08:55:23.062Z,50.98
2018-03-03T08:56:23.091Z,51.26
2018-03-03T08:57:23.022Z,50.32
2018-03-03T08:58:23.035Z,49.85
2018-03-03T08:59:22.965Z,49.09
2018-03-03T09:00:22.946Z,47.99
2018-03-03T09:01:22.962Z,47.51
2018-03-03T09:02:22.936Z,47.13
2018-03-03T09:03:22.869Z,46.66
2018-03-03T09:04:22.852Z,45.81
2018-03-03T09:05:22.826Z,45.15
2018-03-03T09:06:22.800Z,44.77
2018-03-03T09:07:22.828Z,44.49
2018-03-03T09:08:22.758Z,44.49
2018-03-03T09:09:22.797Z,44.77
2018-03-03T09:10:22.728Z,43.73
2018-03-03T09:11:22.689Z,43.26
2018-03-03T09:12:22.718Z,43.54
2018-03-03T09:13:22.644Z,43.95
2018-03-03T09:14:22.672Z,43.07
2018-03-03T09:15:22.604Z,43.66
2018-03-03T09:16:22.616Z,43.38
2018-03-03T09:17:22.557Z,43.28
2018-03-03T09:18:22.578Z,43.07
2018-03-03T09:19:22.531Z,42.71
2018-03-03T09:20:22.496Z,42.90
2018-03-03T09:21:22.472Z,42.90
2018-03-03T09:22:22.452Z,42.81
2018-03-03T09:23:22.569Z,42.55
2018-03-03T09:24:22.410Z,41.60
2018-03-03T09:25:22.385Z,40.94
2018-03-03T09:26:22.403Z,40.47
2018-03-03T09:27:22.473Z,39.90
2018-03-03T09:28:22.323Z,39.90
2018-03-03T09:29:22.304Z,38.95
2018-03-03T09:30:22.291Z,38.76
2018-03-03T09:31:22.263Z,38.84
2018-03-03T09:32:22.302Z,39.03
2018-03-03T09:33:22.225Z,39.12
2018-03-03T09:34:22.204Z,39.40
2018-03-03T09:35:22.185Z,39.81
2018-03-03T09:36:22.165Z,40.09
2018-03-03T09:37:22.194Z,40.47
2018-03-03T09:38:22.126Z,40.47
2018-03-03T09:39:22.106Z,39.52
2018-03-03T09:40:22.095Z,38.69
2018-03-03T09:41:22.063Z,37.93
2018-03-03T09:42:22.086Z,38.03
2018-03-03T09:43:22.024Z,37.55
2018-03-03T09:44:22.007Z,36.99
2018-03-03T09:45:21.986Z,36.33
2018-03-03T09:46:21.984Z,36.42
2018-03-03T09:47:22.006Z,35.95
2018-03-03T09:48:21.964Z,35.76
2018-03-03T09:49:21.915Z,35.76
2018-03-03T09:50:21.888Z,35.76
2018-03-03T09:51:21.880Z,35.57
2018-03-03T09:52:21.892Z,34.91
2018-03-03T09:53:21.830Z,35.11
2018-03-03T09:54:21.857Z,34.92
2018-03-03T09:55:21.797Z,34.45
2018-03-03T09:56:21.794Z,34.45
2018-03-03T09:57:21.758Z,34.07
2018-03-03T09:58:21.800Z,34.07
2018-03-03T09:59:21.715Z,33.69
2018-03-03T10:00:21.702Z,33.71
2018-03-03T10:01:21.687Z,33.81
2018-03-03T10:02:21.662Z,33.71
2018-03-03T10:03:21.693Z,33.81
2018-03-03T10:04:21.624Z,33.16
2018-03-03T10:05:21.609Z,32.86
2018-03-03T10:06:22.413Z,32.57
2018-03-03T10:07:21.572Z,32.67
2018-03-03T10:08:21.552Z,32.01
2018-03-03T10:09:21.540Z,31.91
2018-03-03T10:10:21.516Z,32.20
2018-03-03T10:11:21.542Z,32.01
2018-03-03T10:12:21.482Z,32.20
2018-03-03T10:13:21.462Z,32.20
2018-03-03T10:14:21.492Z,32.01
2018-03-03T10:15:21.429Z,31.91
2018-03-03T10:16:21.414Z,32.01
2018-03-03T10:17:21.438Z,32.10
2018-03-03T10:18:21.372Z,31.82
2018-03-03T10:19:21.357Z,32.10
2018-03-03T10:20:21.395Z,31.82
2018-03-03T10:21:21.324Z,32.29
2018-03-03T10:22:21.336Z,32.10
2018-03-03T10:23:21.293Z,32.02
2018-03-03T10:24:21.272Z,32.02
2018-03-03T10:25:21.298Z,31.45
2018-03-03T10:26:21.246Z,30.32
2018-03-03T10:27:21.267Z,30.51
2018-03-03T10:28:21.196Z,30.51
2018-03-03T10:29:21.181Z,30.51
2018-03-03T10:30:21.216Z,30.22
2018-03-03T10:31:21.144Z,30.24
2018-03-03T10:32:21.175Z,29.86
2018-03-03T10:33:21.122Z,29.18
2018-03-03T10:34:21.097Z,29.46
2018-03-03T10:35:21.078Z,29.46
2018-03-03T10:36:21.083Z,28.99
2018-03-03T10:37:21.084Z,28.99
2018-03-03T10:38:21.066Z,29.27
2018-03-03T10:39:21.009Z,29.46
2018-03-03T10:40:21.011Z,29.46
2018-03-03T10:41:20.975Z,29.46
2018-03-03T10:42:20.958Z,29.48
2018-03-03T10:43:20.986Z,29.37
2018-03-03T10:44:20.927Z,29.27
2018-03-03T10:45:20.927Z,29.76
2018-03-03T10:46:20.893Z,29.48
2018-03-03T10:47:20.873Z,29.48
2018-03-03T10:48:20.910Z,28.91
2018-03-03T10:49:20.837Z,28.72
2018-03-03T10:50:20.824Z,28.81
2018-03-03T10:51:20.810Z,29.19
2018-03-03T10:52:20.796Z,29.00
2018-03-03T10:53:20.823Z,28.53
2018-03-03T10:54:20.767Z,28.72
2018-03-03T10:55:20.759Z,27.77
2018-03-03T10:56:20.748Z,27.58
2018-03-03T10:57:20.708Z,27.96
2018-03-03T10:58:20.760Z,28.23
2018-03-03T10:59:20.686Z,28.89
2018-03-03T11:00:20.662Z,28.91
2018-03-03T11:01:20.646Z,28.63
2018-03-03T11:02:20.627Z,28.63
2018-03-03T11:03:20.658Z,28.26
2018-03-03T11:04:20.593Z,28.25
2018-03-03T11:05:20.634Z,27.39
2018-03-03T11:06:20.560Z,27.69
2018-03-03T11:07:20.543Z,27.50
2018-03-03T11:08:20.524Z,27.33
2018-03-03T11:09:20.513Z,26.76
2018-03-03T11:10:20.586Z,26.28
2018-03-03T11:11:20.476Z,26.18
2018-03-03T11:12:20.469Z,25.90
2018-03-03T11:13:20.458Z,26.47
2018-03-03T11:14:20.430Z,26.47
2018-03-03T11:15:20.453Z,25.99
2018-03-03T11:16:20.396Z,25.92
2018-03-03T11:17:20.383Z,25.92
2018-03-03T11:18:20.362Z,25.73
2018-03-03T11:19:20.348Z,25.06
2018-03-03T11:20:20.375Z,24.88
2018-03-03T11:21:20.318Z,24.79
2018-03-03T11:22:20.375Z,24.22
2018-03-03T11:23:20.294Z,23.75
2018-03-03T11:24:20.280Z,23.46
2018-03-03T11:25:20.248Z,22.80
2018-03-03T11:26:20.245Z,22.70
2018-03-03T11:27:20.269Z,23.46
2018-03-03T11:28:20.207Z,23.36
2018-03-03T11:29:20.185Z,23.25
2018-03-03T11:30:20.173Z,24.02
2018-03-03T11:31:20.162Z,24.21
2018-03-03T11:32:20.185Z,24.03
2018-03-03T11:33:20.138Z,23.74
2018-03-03T11:34:20.152Z,23.85
2018-03-03T11:35:20.150Z,23.00
2018-03-03T11:36:20.080Z,22.71
2018-03-03T11:37:20.067Z,22.70
2018-03-03T11:38:20.046Z,22.22
2018-03-03T11:39:20.030Z,22.60
2018-03-03T11:40:20.064Z,22.70
2018-03-03T11:41:19.997Z,22.90
2018-03-03T11:42:19.984Z,22.89
2018-03-03T11:43:19.970Z,22.89
2018-03-03T11:44:19.969Z,23.36
2018-03-03T11:45:19.979Z,23.35
2018-03-03T11:46:19.927Z,23.64
2018-03-03T11:47:19.907Z,23.35
2018-03-03T11:48:19.894Z,24.03
2018-03-03T11:49:19.879Z,23.84
2018-03-03T11:50:19.905Z,23.74
2018-03-03T11:51:19.846Z,23.93
2018-03-03T11:52:19.826Z,23.84
2018-03-03T11:53:19.816Z,23.74
2018-03-03T11:54:19.796Z,23.85
2018-03-03T11:55:19.831Z,23.67
2018-03-03T11:56:19.810Z,22.44
2018-03-03T11:57:19.754Z,22.34
2018-03-03T11:58:19.740Z,21.48
2018-03-03T11:59:19.722Z,21.86
2018-03-03T12:00:19.712Z,21.77
2018-03-03T12:01:19.739Z,21.67
2018-03-03T12:02:19.681Z,21.48
2018-03-03T12:03:19.686Z,21.30
2018-03-03T12:04:19.651Z,20.92
2018-03-03T12:05:19.651Z,21.20
2018-03-03T12:06:19.670Z,21.20
2018-03-03T12:07:19.609Z,21.40
2018-03-03T12:08:19.595Z,21.40
2018-03-03T12:09:19.589Z,21.11
2018-03-03T12:10:19.577Z,21.20
2018-03-03T12:11:19.606Z,21.67
2018-03-03T12:12:19.539Z,20.90
2018-03-03T12:13:19.529Z,21.48
2018-03-03T12:14:19.513Z,21.86
2018-03-03T12:15:19.530Z,21.39
2018-03-03T12:16:19.530Z,21.67
2018-03-03T12:17:19.512Z,21.20
2018-03-03T12:18:19.463Z,21.31
2018-03-03T12:19:19.443Z,21.12
2018-03-03T12:20:19.429Z,20.83
2018-03-03T12:21:19.459Z,20.83
2018-03-03T12:22:19.447Z,21.22
2018-03-03T12:23:19.391Z,20.84
2018-03-03T12:24:19.382Z,20.56
2018-03-03T12:25:19.366Z,20.84
2018-03-03T12:26:19.349Z,20.73
2018-03-03T12:27:19.379Z,20.92
2018-03-03T12:28:19.380Z,20.73
2018-03-03T12:29:19.312Z,20.63
2018-03-03T12:30:19.298Z,21.20
2018-03-03T12:31:19.282Z,21.58
2018-03-03T12:32:19.276Z,21.57
2018-03-03T12:33:19.314Z,21.67
2018-03-03T12:34:19.245Z,22.33
2018-03-03T12:35:19.236Z,22.05
2018-03-03T12:36:19.224Z,22.34
2018-03-03T12:37:19.249Z,22.14
2018-03-03T12:38:19.191Z,22.14
2018-03-03T12:39:19.179Z,22.63
2018-03-03T12:40:19.209Z,22.33
2018-03-03T12:41:19.151Z,22.33
2018-03-03T12:42:19.149Z,22.24
2018-03-03T12:43:19.128Z,22.71
2018-03-03T12:44:19.163Z,22.80
2018-03-03T12:45:19.148Z,22.61
2018-03-03T12:46:19.131Z,22.89
2018-03-03T12:47:19.082Z,23.84
2018-03-03T12:48:19.063Z,24.22
2018-03-03T12:49:19.050Z,23.93
2018-03-03T12:50:19.043Z,24.13
2018-03-03T12:51:19.065Z,23.57
2018-03-03T12:52:19.011Z,23.47